Time;durP1;ratioP1;P1;durP2;ratioP2;P2;SDS_P1;SDS_P2;PMS_P1;PMS_P2;Temp;Humidity;BMP_temperature;BMP_pressure;BME280_temperature;BME280_humidity;BME280_pressure;Samples;Min_cycle;Max_cycle;Signal;HPM_P1;HPM_P2
2023/10/26 00:01:01;;;;;;;7.43;4.35;;;;;;;;;;5014769;28;20100;-59
2023/10/26 00:03:48;;;;;;;8.30;4.20;;;;;;;;;;5015884;28;20071;-59
2023/10/26 00:06:42;;;;;;;14.30;5.20;;;;;;;;;;5016377;28;20057;-59
2023/10/26 00:09:29;;;;;;;10.02;4.63;;;;;;;;;;5011458;28;20128;-60
2023/10/26 00:12:23;;;;;;;9.55;5.00;;;;;;;;;;5014166;28;20155;-62
2023/10/26 00:15:10;;;;;;;10.85;4.85;;;;;;;;;;5018564;28;20107;-62
2023/10/26 00:18:06;;;;;;;10.18;4.95;;;;;;;;;;5017117;28;20045;-62
2023/10/26 00:20:57;;;;;;;6.55;4.47;;;;;;;;;;5015286;28;20059;-62
2023/10/26 00:23:51;;;;;;;8.23;4.90;;;;;;;;;;5009331;28;20065;-62
2023/10/26 00:26:40;;;;;;;8.43;4.75;;;;;;;;;;5015613;28;20545;-55
2023/10/26 00:29:32;;;;;;;9.02;4.78;;;;;;;;;;5017644;28;20056;-59
2023/10/26 00:32:19;;;;;;;8.57;4.63;;;;;;;;;;5017428;28;20052;-59
2023/10/26 00:35:13;;;;;;;6.97;4.55;;;;;;;;;;5014379;28;20082;-59
2023/10/26 00:38:01;;;;;;;9.20;4.90;;;;;;;;;;5015119;28;20049;-60
2023/10/26 00:40:54;;;;;;;8.23;5.20;;;;;;;;;;5016273;28;20083;-58
2023/10/26 00:43:42;;;;;;;8.13;4.03;;;;;;;;;;5017561;28;20049;-57
2023/10/26 00:46:36;;;;;;;9.02;4.68;;;;;;;;;;5017617;28;20440;-65
2023/10/26 00:49:23;;;;;;;10.27;4.75;;;;;;;;;;5016986;28;20046;-65
2023/10/26 00:52:17;;;;;;;9.25;5.20;;;;;;;;;;5014257;28;20188;-65
2023/10/26 00:55:11;;;;;;;8.02;3.60;;;;;;;;;;5012499;28;20081;-65
2023/10/26 00:58:06;;;;;;;9.65;5.35;;;;;;;;;;5019167;28;20049;-65
2023/10/26 01:01:00;;;;;;;9.27;3.88;;;;;;;;;;5017517;28;20557;-65
2023/10/26 01:03:54;;;;;;;7.55;4.90;;;;;;;;;;5017039;28;20112;-65
2023/10/26 01:06:41;;;;;;;9.55;3.92;;;;;;;;;;5013666;28;20163;-53
2023/10/26 01:09:35;;;;;;;7.82;4.20;;;;;;;;;;5013671;28;20104;-51
2023/10/26 01:12:22;;;;;;;7.88;4.28;;;;;;;;;;5016064;28;20061;-51
2023/10/26 01:15:16;;;;;;;7.38;4.78;;;;;;;;;;5013049;28;20049;-52
2023/10/26 01:18:03;;;;;;;7.68;4.10;;;;;;;;;;5016292;28;20060;-53
2023/10/26 01:20:57;;;;;;;10.73;4.32;;;;;;;;;;5014572;28;20108;-50
2023/10/26 01:23:51;;;;;;;7.80;4.03;;;;;;;;;;5013547;28;20140;-59
2023/10/26 01:26:40;;;;;;;10.02;4.40;;;;;;;;;;5017703;28;20064;-59
2023/10/26 01:29:33;;;;;;;10.50;4.20;;;;;;;;;;5009726;28;20529;-59
2023/10/26 01:32:20;;;;;;;8.48;4.00;;;;;;;;;;5012044;28;20064;-59
2023/10/26 01:35:14;;;;;;;5.75;3.80;;;;;;;;;;5017946;28;20056;-59
2023/10/26 01:38:01;;;;;;;7.53;4.10;;;;;;;;;;5013257;28;20502;-59
2023/10/26 01:40:55;;;;;;;7.13;4.18;;;;;;;;;;5012779;28;20049;-57
2023/10/26 01:43:49;;;;;;;9.68;4.30;;;;;;;;;;5015677;28;20053;-50
2023/10/26 01:46:36;;;;;;;7.72;4.60;;;;;;;;;;5011766;28;20053;-52
2023/10/26 01:49:11;;;;;;;9.10;4.43;;;;;;;;;;5014069;28;20050;-51
2023/10/26 01:51:58;;;;;;;9.10;4.38;;;;;;;;;;5009613;28;20063;-52
2023/10/26 01:54:52;;;;;;;7.78;4.25;;;;;;;;;;5010183;28;20627;-48
2023/10/26 01:57:40;;;;;;;9.27;4.38;;;;;;;;;;5012539;28;20301;-51
2023/10/26 02:00:41;;;;;;;7.45;4.10;;;;;;;;;;5013674;28;20057;-63
2023/10/26 02:03:28;;;;;;;7.35;4.10;;;;;;;;;;5010317;28;20172;-59
2023/10/26 02:06:22;;;;;;;5.28;4.10;;;;;;;;;;5012136;28;20045;-59
2023/10/26 02:09:10;;;;;;;7.87;4.87;;;;;;;;;;5011821;28;20049;-59
2023/10/26 02:12:04;;;;;;;7.03;4.13;;;;;;;;;;5011185;28;20601;-59
2023/10/26 02:14:51;;;;;;;7.65;4.10;;;;;;;;;;5009202;28;20404;-60
2023/10/26 02:17:45;;;;;;;6.90;3.88;;;;;;;;;;5013383;28;21179;-64
2023/10/26 02:20:33;;;;;;;7.90;3.80;;;;;;;;;;5012795;28;20080;-60
2023/10/26 02:23:26;;;;;;;5.70;3.88;;;;;;;;;;5012351;28;20625;-60
2023/10/26 02:26:13;;;;;;;11.05;4.00;;;;;;;;;;5013091;28;20049;-59
2023/10/26 02:29:07;;;;;;;9.60;4.25;;;;;;;;;;5010445;28;20495;-59
2023/10/26 02:31:54;;;;;;;7.57;4.20;;;;;;;;;;5010631;28;22395;-59
2023/10/26 02:34:48;;;;;;;9.90;4.72;;;;;;;;;;5012755;28;20045;-59
2023/10/26 02:37:39;;;;;;;7.30;4.30;;;;;;;;;;5011428;28;20045;-63
2023/10/26 02:40:35;;;;;;;7.60;4.30;;;;;;;;;;5013671;28;20057;-51
2023/10/26 02:43:22;;;;;;;10.70;4.35;;;;;;;;;;5011735;28;20099;-50
2023/10/26 02:46:16;;;;;;;7.10;3.65;;;;;;;;;;5012156;28;20053;-52
2023/10/26 02:49:03;;;;;;;9.13;4.45;;;;;;;;;;5012280;28;20061;-50
2023/10/26 02:51:58;;;;;;;6.88;3.97;;;;;;;;;;5008147;28;20045;-49
2023/10/26 02:54:45;;;;;;;7.82;4.40;;;;;;;;;;5011085;28;20054;-63
2023/10/26 02:57:39;;;;;;;9.25;4.30;;;;;;;;;;5011725;28;20049;-63
2023/10/26 03:00:33;;;;;;;7.95;3.95;;;;;;;;;;4995588;28;20651;-63
2023/10/26 03:03:26;;;;;;;10.52;4.55;;;;;;;;;;5010757;28;20151;-63
2023/10/26 03:06:13;;;;;;;10.15;4.38;;;;;;;;;;5010374;28;20124;-62
2023/10/26 03:09:08;;;;;;;4.95;3.45;;;;;;;;;;5013608;28;20057;-62
2023/10/26 03:11:55;;;;;;;10.10;5.07;;;;;;;;;;5011893;28;20120;-63
2023/10/26 03:14:49;;;;;;;7.68;4.28;;;;;;;;;;5012282;28;20054;-58
2023/10/26 03:17:16;;;;;;;7.60;4.10;;;;;;;;;;5009836;28;20069;-51
2023/10/26 03:20:10;;;;;;;9.70;4.63;;;;;;;;;;5008940;28;20077;-51
2023/10/26 03:22:57;;;;;;;8.93;4.28;;;;;;;;;;5009364;28;20053;-49
2023/10/26 03:25:51;;;;;;;6.07;3.85;;;;;;;;;;5009244;28;20053;-49
2023/10/26 03:28:39;;;;;;;9.35;4.30;;;;;;;;;;5008978;28;20123;-49
2023/10/26 03:31:33;;;;;;;5.80;4.00;;;;;;;;;;5011493;28;20049;-63
2023/10/26 03:34:19;;;;;;;8.85;4.00;;;;;;;;;;5010129;28;20191;-64
2023/10/26 03:37:13;;;;;;;10.95;4.32;;;;;;;;;;5007872;28;20289;-63
2023/10/26 03:39:47;;;;;;;8.02;4.28;;;;;;;;;;5011478;28;20058;-63
2023/10/26 03:42:41;;;;;;;10.35;4.63;;;;;;;;;;5013002;28;20061;-62
2023/10/26 03:45:29;;;;;;;9.40;4.63;;;;;;;;;;5009228;28;20078;-63
2023/10/26 03:48:22;;;;;;;9.07;4.18;;;;;;;;;;5012915;28;20059;-63
2023/10/26 03:51:10;;;;;;;8.93;4.68;;;;;;;;;;5007960;28;20057;-52
2023/10/26 03:54:03;;;;;;;7.55;4.53;;;;;;;;;;5006319;28;20085;-65
2023/10/26 03:56:50;;;;;;;7.75;4.10;;;;;;;;;;5015680;28;20053;-65
2023/10/26 03:59:51;;;;;;;7.93;4.60;;;;;;;;;;5017582;28;20059;-65
2023/10/26 04:02:38;;;;;;;9.75;4.45;;;;;;;;;;5014005;28;20061;-65
2023/10/26 04:05:33;;;;;;;8.38;4.32;;;;;;;;;;5006660;28;20057;-65
2023/10/26 04:08:20;;;;;;;8.15;5.00;;;;;;;;;;5008570;28;20132;-65
2023/10/26 04:11:17;;;;;;;7.10;4.75;;;;;;;;;;5006326;28;20068;-60
2023/10/26 04:14:04;;;;;;;9.60;5.20;;;;;;;;;;5003743;28;20045;-62
2023/10/26 04:16:58;;;;;;;8.73;4.50;;;;;;;;;;5005658;28;20049;-60
2023/10/26 04:19:45;;;;;;;9.85;4.78;;;;;;;;;;5010168;28;20419;-59
2023/10/26 04:22:40;;;;;;;10.40;4.80;;;;;;;;;;5012371;28;20103;-59
2023/10/26 04:25:28;;;;;;;8.57;5.32;;;;;;;;;;5004216;28;20950;-60
2023/10/26 04:28:21;;;;;;;9.38;5.25;;;;;;;;;;5009727;28;20049;-53
2023/10/26 04:30:55;;;;;;;10.00;5.20;;;;;;;;;;5015653;28;20061;-63
2023/10/26 04:33:29;;;;;;;10.57;5.45;;;;;;;;;;5012641;28;20049;-63
2023/10/26 04:36:23;;;;;;;9.98;5.68;;;;;;;;;;5018286;28;20049;-62
2023/10/26 04:39:11;;;;;;;10.82;5.38;;;;;;;;;;5017240;28;20499;-62
2023/10/26 04:42:04;;;;;;;14.30;5.88;;;;;;;;;;5010013;28;20096;-63
2023/10/26 04:44:52;;;;;;;12.35;5.55;;;;;;;;;;5011170;28;20058;-59
2023/10/26 04:47:45;;;;;;;11.18;5.43;;;;;;;;;;5009364;28;20052;-58
2023/10/26 04:50:39;;;;;;;11.05;5.53;;;;;;;;;;5010009;28;20050;-59
2023/10/26 04:53:27;;;;;;;8.43;5.60;;;;;;;;;;5011000;28;20085;-58
2023/10/26 04:56:20;;;;;;;13.02;5.43;;;;;;;;;;5008393;28;20536;-59
2023/10/26 04:59:07;;;;;;;9.80;5.60;;;;;;;;;;5013401;28;20116;-59
2023/10/26 05:02:08;;;;;;;12.88;5.80;;;;;;;;;;5004588;28;20105;-59
2023/10/26 05:04:36;;;;;;;12.55;5.80;;;;;;;;;;5014886;28;20242;-51
2023/10/26 05:07:30;;;;;;;12.00;4.90;;;;;;;;;;5016570;28;20049;-65
2023/10/26 05:10:17;;;;;;;11.30;5.40;;;;;;;;;;5016581;28;20046;-65
2023/10/26 05:13:10;;;;;;;9.82;5.32;;;;;;;;;;5017519;28;20052;-65
2023/10/26 05:15:57;;;;;;;10.15;6.03;;;;;;;;;;5017856;28;20057;-65
2023/10/26 05:18:51;;;;;;;11.75;5.68;;;;;;;;;;5018194;28;20065;-65
2023/10/26 05:21:38;;;;;;;12.13;7.10;;;;;;;;;;5015626;28;20498;-58
2023/10/26 05:24:32;;;;;;;12.18;6.03;;;;;;;;;;5014386;28;20486;-46
2023/10/26 05:27:26;;;;;;;9.27;5.63;;;;;;;;;;5019357;28;20058;-52
2023/10/26 05:30:13;;;;;;;10.27;5.43;;;;;;;;;;5019092;28;20100;-49
2023/10/26 05:33:07;;;;;;;14.93;7.00;;;;;;;;;;5017366;28;20079;-48
2023/10/26 05:35:55;;;;;;;15.43;6.63;;;;;;;;;;5012142;28;20065;-49
2023/10/26 05:38:49;;;;;;;14.82;6.32;;;;;;;;;;5017147;28;20495;-52
2023/10/26 05:41:37;;;;;;;;;;;;;;;;;;5017208;28;20089;-65
2023/10/26 05:44:31;;;;;;;12.55;6.57;;;;;;;;;;5018376;28;19929;-58
2023/10/26 05:47:24;;;;;;;16.45;6.45;;;;;;;;;;5013045;28;20052;-58
2023/10/26 05:50:11;;;;;;;14.93;6.25;;;;;;;;;;5013562;28;20052;-58
2023/10/26 05:53:05;;;;;;;12.02;6.32;;;;;;;;;;5018101;28;20140;-58
2023/10/26 05:55:59;;;;;;;15.85;6.40;;;;;;;;;;5018263;28;20443;-57
2023/10/26 05:58:48;;;;;;;14.15;6.53;;;;;;;;;;5017464;28;20088;-64
2023/10/26 06:01:49;;;;;;;12.52;5.68;;;;;;;;;;5017517;28;20131;-65
2023/10/26 06:04:36;;;;;;;12.88;7.03;;;;;;;;;;5014297;28;20086;-62
2023/10/26 06:07:30;;;;;;;15.13;5.80;;;;;;;;;;5017504;28;20053;-62
2023/10/26 06:10:17;;;;;;;15.98;6.93;;;;;;;;;;5012978;28;20054;-61
2023/10/26 06:13:13;;;;;;;15.80;6.50;;;;;;;;;;5015629;28;20053;-62
2023/10/26 06:16:05;;;;;;;14.57;6.22;;;;;;;;;;5013038;28;20061;-60
2023/10/26 06:18:59;;;;;;;11.82;6.50;;;;;;;;;;5014563;28;20049;-62
2023/10/26 06:21:54;;;;;;;11.15;6.05;;;;;;;;;;5020530;28;20056;-51
2023/10/26 06:24:41;;;;;;;13.45;6.55;;;;;;;;;;5013025;28;20114;-50
2023/10/26 06:27:35;;;;;;;12.80;6.20;;;;;;;;;;5013069;28;20103;-53
2023/10/26 06:30:24;;;;;;;14.80;6.15;;;;;;;;;;5012366;28;20401;-52
2023/10/26 06:33:18;;;;;;;16.70;6.70;;;;;;;;;;5014693;28;20045;-48
2023/10/26 06:36:06;;;;;;;12.30;6.95;;;;;;;;;;5021448;28;20053;-50
2023/10/26 06:38:59;;;;;;;13.90;6.50;;;;;;;;;;5017739;28;20100;-59
2023/10/26 06:41:46;;;;;;;16.58;7.10;;;;;;;;;;5014332;28;20060;-60
2023/10/26 06:44:40;;;;;;;14.30;7.10;;;;;;;;;;5013782;28;20056;-59
2023/10/26 06:47:28;;;;;;;10.55;6.53;;;;;;;;;;5018529;28;20055;-59
2023/10/26 06:50:23;;;;;;;20.30;6.45;;;;;;;;;;5015273;28;20053;-59
2023/10/26 06:53:09;;;;;;;20.20;7.40;;;;;;;;;;5014960;28;21190;-62
2023/10/26 06:56:02;;;;;;;13.68;7.13;;;;;;;;;;5015771;28;20057;-62
2023/10/26 06:58:56;;;;;;;17.60;6.95;;;;;;;;;;5012565;28;20049;-62
2023/10/26 07:01:57;;;;;;;15.50;7.40;;;;;;;;;;5017194;28;20053;-62
2023/10/26 07:04:44;;;;;;;15.70;7.00;;;;;;;;;;5018152;28;20057;-62
2023/10/26 07:07:38;;;;;;;18.63;7.10;;;;;;;;;;5012964;28;20069;-62
2023/10/26 07:10:32;;;;;;;11.98;6.43;;;;;;;;;;5015462;28;20826;-63
2023/10/26 07:13:26;;;;;;;12.65;7.30;;;;;;;;;;5016780;28;20049;-48
2023/10/26 07:16:27;;;;;;;15.35;6.95;;;;;;;;;;5015115;28;20054;-65
2023/10/26 07:19:14;;;;;;;11.90;6.60;;;;;;;;;;5013974;28;20073;-65
2023/10/26 07:22:08;;;;;;;15.85;6.47;;;;;;;;;;5019018;28;20049;-65
2023/10/26 07:24:56;;;;;;;12.68;6.05;;;;;;;;;;5017922;28;20115;-66
2023/10/26 07:27:50;;;;;;;17.63;7.40;;;;;;;;;;5017893;28;20081;-65
2023/10/26 07:30:44;;;;;;;11.88;6.97;;;;;;;;;;5013855;28;20061;-59
2023/10/26 07:33:37;;;;;;;12.02;6.57;;;;;;;;;;5016210;28;20126;-59
2023/10/26 07:36:26;;;;;;;9.95;6.25;;;;;;;;;;5018719;28;20049;-60
2023/10/26 07:39:18;;;;;;;12.00;6.50;;;;;;;;;;5015859;28;20779;-59
2023/10/26 07:42:14;;;;;;;16.73;6.40;;;;;;;;;;5014632;28;20068;-59
2023/10/26 07:45:07;;;;;;;17.48;6.25;;;;;;;;;;5015406;28;20061;-59
2023/10/26 07:47:58;;;;;;;13.05;6.60;;;;;;;;;;5016674;28;20045;-59
2023/10/26 07:50:52;;;;;;;12.82;6.40;;;;;;;;;;5019028;28;20064;-62
2023/10/26 07:53:39;;;;;;;13.35;6.40;;;;;;;;;;5017937;28;20061;-59
2023/10/26 07:56:33;;;;;;;15.77;6.45;;;;;;;;;;5014829;28;20086;-59
2023/10/26 07:59:20;;;;;;;11.60;6.47;;;;;;;;;;5022328;28;20049;-59
2023/10/26 08:02:22;;;;;;;11.73;5.78;;;;;;;;;;5015881;28;20053;-59
2023/10/26 08:05:11;;;;;;;11.60;5.80;;;;;;;;;;5013514;28;20063;-59
2023/10/26 08:08:03;;;;;;;11.55;6.22;;;;;;;;;;5017995;28;20053;-62
2023/10/26 08:10:50;;;;;;;13.65;6.10;;;;;;;;;;5014095;28;20465;-51
2023/10/26 08:13:45;;;;;;;12.18;6.53;;;;;;;;;;5016988;28;20061;-53
2023/10/26 08:16:51;;;;;;;12.98;6.25;;;;;;;;;;5014634;28;20427;-54
2023/10/26 08:19:46;;;;;;;9.13;5.80;;;;;;;;;;5014646;28;20096;-54
2023/10/26 08:22:33;;;;;;;11.80;6.47;;;;;;;;;;5015332;28;20827;-54
2023/10/26 08:25:45;;;;;;;10.95;6.38;;;;;;;;;;5014221;28;20053;-54
2023/10/26 08:28:32;;;;;;;13.57;6.32;;;;;;;;;;5017237;28;20054;-63
2023/10/26 08:31:34;;;;;;;16.60;6.65;;;;;;;;;;5015748;28;20514;-63
2023/10/26 08:34:21;;;;;;;10.93;6.35;;;;;;;;;;5010731;28;20434;-61
2023/10/26 08:37:17;;;;;;;12.38;6.18;;;;;;;;;;5014187;28;20041;-62
2023/10/26 08:40:12;;;;;;;12.38;6.60;;;;;;;;;;5015469;28;20107;-63
2023/10/26 08:43:06;;;;;;;15.40;6.47;;;;;;;;;;5011847;28;20062;-66
2023/10/26 08:45:57;;;;;;;13.13;5.80;;;;;;;;;;5014772;28;20855;-62
2023/10/26 08:48:54;;;;;;;13.90;6.65;;;;;;;;;;5013754;28;20111;-50
2023/10/26 08:51:42;;;;;;;10.65;6.25;;;;;;;;;;5013619;28;20057;-48
2023/10/26 08:54:37;;;;;;;13.15;5.85;;;;;;;;;;5016781;28;20053;-52
2023/10/26 08:57:23;;;;;;;12.75;6.15;;;;;;;;;;5016411;28;20143;-48
2023/10/26 09:00:24;;;;;;;10.98;5.47;;;;;;;;;;5012430;28;20053;-47
2023/10/26 09:03:18;;;;;;;13.70;5.70;;;;;;;;;;5009195;28;20123;-59
2023/10/26 09:06:11;;;;;;;11.52;6.35;;;;;;;;;;5013540;28;20057;-63
2023/10/26 09:09:03;;;;;;;12.65;6.35;;;;;;;;;;5015738;28;20298;-63
2023/10/26 09:12:08;;;;;;;19.08;6.25;;;;;;;;;;5014505;28;20531;-62
2023/10/26 09:15:03;;;;;;;13.43;5.57;;;;;;;;;;5012867;28;20661;-62
2023/10/26 09:17:57;;;;;;;10.52;5.32;;;;;;;;;;5014101;28;20132;-63
2023/10/26 09:21:02;;;;;;;10.63;5.75;;;;;;;;;;5012499;28;20060;-65
2023/10/26 09:23:54;;;;;;;10.43;5.95;;;;;;;;;;5010488;28;20510;-59
2023/10/26 09:26:41;;;;;;;9.90;5.63;;;;;;;;;;5018660;28;20053;-59
2023/10/26 09:29:36;;;;;;;10.52;5.88;;;;;;;;;;5015212;28;20049;-59
2023/10/26 09:32:31;;;;;;;10.27;5.17;;;;;;;;;;5009717;28;20057;-58
2023/10/26 09:35:26;;;;;;;10.25;5.20;;;;;;;;;;5016122;28;20447;-59
2023/10/26 09:38:13;;;;;;;11.98;5.88;;;;;;;;;;5017616;28;20518;-58
2023/10/26 09:41:08;;;;;;;9.23;5.60;;;;;;;;;;5013100;28;20042;-60
2023/10/26 09:43:54;;;;;;;12.80;5.05;;;;;;;;;;5014140;28;20123;-63
2023/10/26 09:46:49;;;;;;;9.60;5.47;;;;;;;;;;5015249;28;20068;-63
2023/10/26 09:49:36;;;;;;;9.30;5.53;;;;;;;;;;5012238;28;20465;-62
2023/10/26 09:52:31;;;;;;;9.27;5.05;;;;;;;;;;5014394;28;20061;-63
2023/10/26 09:55:18;;;;;;;7.72;4.85;;;;;;;;;;5006430;28;20057;-63
2023/10/26 09:58:12;;;;;;;7.72;4.65;;;;;;;;;;5012366;28;20511;-66
2023/10/26 10:01:32;;;;;;;8.32;4.47;;;;;;;;;;5010661;28;20522;-54
2023/10/26 10:04:34;;;;;;;9.15;4.57;;;;;;;;;;5013737;28;20073;-52
2023/10/26 10:07:44;;;;;;;6.65;4.53;;;;;;;;;;5011809;28;20529;-54
2023/10/26 10:10:12;;;;;;;6.35;4.40;;;;;;;;;;5014059;28;20101;-53
2023/10/26 10:13:07;;;;;;;7.13;4.43;;;;;;;;;;5014466;28;20049;-54
2023/10/26 10:15:54;;;;;;;6.68;4.78;;;;;;;;;;5009535;28;20064;-50
2023/10/26 10:19:06;;;;;;;9.88;4.05;;;;;;;;;;5016026;28;20057;-59
2023/10/26 10:21:53;;;;;;;8.70;4.47;;;;;;;;;;5012716;28;20061;-60
2023/10/26 10:24:50;;;;;;;7.60;4.40;;;;;;;;;;5013911;28;20050;-59
2023/10/26 10:27:39;;;;;;;7.00;4.28;;;;;;;;;;5010269;28;20072;-59
2023/10/26 10:30:47;;;;;;;5.88;3.90;;;;;;;;;;5013040;28;20046;-59
2023/10/26 10:33:34;;;;;;;9.93;4.30;;;;;;;;;;5013447;28;20123;-48
2023/10/26 10:36:28;;;;;;;9.05;4.30;;;;;;;;;;5013589;28;20546;-65
2023/10/26 10:39:22;;;;;;;4.90;3.63;;;;;;;;;;5012849;28;20257;-66
2023/10/26 10:42:17;;;;;;;7.97;3.92;;;;;;;;;;5013150;28;20049;-65
2023/10/26 10:45:04;;;;;;;9.27;4.50;;;;;;;;;;5010665;28;20058;-65
2023/10/26 10:48:04;;;;;;;10.20;4.10;;;;;;;;;;5010265;28;20096;-64
2023/10/26 10:50:52;;;;;;;7.57;4.05;;;;;;;;;;5014157;28;20515;-65
2023/10/26 10:53:49;;;;;;;7.85;4.15;;;;;;;;;;5013971;28;20138;-62
2023/10/26 10:56:56;;;;;;;5.32;3.70;;;;;;;;;;5018171;28;20056;-59
2023/10/26 10:59:43;;;;;;;7.13;3.95;;;;;;;;;;5018543;28;20072;-59
2023/10/26 11:02:17;;;;;;;7.85;4.20;;;;;;;;;;5015377;28;20088;-59
2023/10/26 11:05:12;;;;;;;6.50;4.10;;;;;;;;;;5014794;28;20054;-59
2023/10/26 11:07:59;;;;;;;8.70;4.28;;;;;;;;;;5015183;28;20065;-59
2023/10/26 11:10:54;;;;;;;8.15;3.72;;;;;;;;;;5012451;28;20049;-59
2023/10/26 11:13:41;;;;;;;9.10;3.83;;;;;;;;;;5019678;28;20061;-60
2023/10/26 11:16:36;;;;;;;10.07;3.80;;;;;;;;;;5016135;28;20061;-59
2023/10/26 11:19:23;;;;;;;7.30;3.38;;;;;;;;;;5017910;28;20062;-59
2023/10/26 11:22:18;;;;;;;7.22;3.83;;;;;;;;;;5016799;28;20058;-60
2023/10/26 11:25:06;;;;;;;6.57;2.97;;;;;;;;;;5013161;28;20103;-60
2023/10/26 11:27:59;;;;;;;6.22;3.67;;;;;;;;;;5012074;28;20049;-60
2023/10/26 11:30:47;;;;;;;8.43;3.50;;;;;;;;;;5016342;28;20053;-63
2023/10/26 11:33:42;;;;;;;7.53;4.00;;;;;;;;;;5013997;28;20053;-66
2023/10/26 11:36:29;;;;;;;8.65;3.63;;;;;;;;;;5019345;28;20057;-65
2023/10/26 11:39:23;;;;;;;6.85;3.35;;;;;;;;;;5010140;28;20049;-65
2023/10/26 11:42:10;;;;;;;6.50;3.13;;;;;;;;;;5018417;28;20529;-66
2023/10/26 11:45:04;;;;;;;7.20;3.58;;;;;;;;;;5017369;28;20064;-65
2023/10/26 11:47:58;;;;;;;5.47;3.33;;;;;;;;;;5017088;28;20061;-63
2023/10/26 11:50:45;;;;;;;7.07;3.75;;;;;;;;;;5013564;28;20779;-62
2023/10/26 11:53:39;;;;;;;4.82;3.17;;;;;;;;;;5015899;28;20461;-62
2023/10/26 11:56:27;;;;;;;6.75;3.50;;;;;;;;;;5018204;28;20049;-62
2023/10/26 11:59:20;;;;;;;5.85;3.70;;;;;;;;;;5016219;28;20113;-63
2023/10/26 12:02:14;;;;;;;5.35;3.42;;;;;;;;;;5018653;28;20187;-65
2023/10/26 12:05:08;;;;;;;6.05;2.95;;;;;;;;;;5016116;28;20057;-46
2023/10/26 12:07:55;;;;;;;13.30;3.47;;;;;;;;;;5014277;28;20081;-59
2023/10/26 12:10:49;;;;;;;6.03;2.88;;;;;;;;;;5015777;28;20530;-60
2023/10/26 12:13:36;;;;;;;5.47;3.42;;;;;;;;;;5013052;28;20049;-59
2023/10/26 12:16:30;;;;;;;5.60;2.70;;;;;;;;;;5017156;28;20128;-59
2023/10/26 12:19:17;;;;;;;4.15;3.05;;;;;;;;;;5014541;28;20503;-59
2023/10/26 12:22:11;;;;;;;4.22;3.03;;;;;;;;;;5012953;28;20437;-59
2023/10/26 12:24:59;;;;;;;6.97;2.83;;;;;;;;;;5014684;28;20124;-62
2023/10/26 12:27:53;;;;;;;4.55;3.08;;;;;;;;;;5014136;28;20430;-66
2023/10/26 12:30:53;;;;;;;4.07;2.75;;;;;;;;;;5016107;28;20057;-66
2023/10/26 12:33:46;;;;;;;4.57;2.97;;;;;;;;;;5015347;28;20336;-65
2023/10/26 12:36:34;;;;;;;5.35;3.13;;;;;;;;;;5011526;28;20056;-66
2023/10/26 12:39:27;;;;;;;4.57;3.25;;;;;;;;;;5012512;28;20065;-66
2023/10/26 12:42:23;;;;;;;5.85;3.10;;;;;;;;;;5014394;28;20148;-53
2023/10/26 12:45:09;;;;;;;5.25;2.97;;;;;;;;;;5013196;28;20128;-58
2023/10/26 12:48:04;;;;;;;6.32;3.05;;;;;;;;;;5017880;28;20272;-59
2023/10/26 12:50:51;;;;;;;9.13;3.30;;;;;;;;;;5012059;28;20081;-60
2023/10/26 12:53:45;;;;;;;5.28;2.90;;;;;;;;;;5013558;28;20054;-59
2023/10/26 12:56:37;;;;;;;6.90;3.10;;;;;;;;;;5015249;28;20060;-59
2023/10/26 12:59:31;;;;;;;3.92;2.88;;;;;;;;;;5012617;28;20057;-59
2023/10/26 13:02:25;;;;;;;9.02;3.05;;;;;;;;;;5015121;28;20058;-50
2023/10/26 13:05:19;;;;;;;6.85;2.72;;;;;;;;;;5016809;28;20053;-51
2023/10/26 13:08:08;;;;;;;5.25;2.80;;;;;;;;;;5012427;28;20581;-49
2023/10/26 13:11:00;;;;;;;4.88;2.88;;;;;;;;;;5015529;28;20085;-52
2023/10/26 13:13:50;;;;;;;5.57;2.50;;;;;;;;;;5015596;28;20056;-47
2023/10/26 13:16:44;;;;;;;6.80;2.75;;;;;;;;;;5012313;28;20053;-51
2023/10/26 13:19:31;;;;;;;4.45;2.70;;;;;;;;;;5013593;28;20484;-63
2023/10/26 13:22:25;;;;;;;6.45;3.22;;;;;;;;;;5013806;28;20103;-58
2023/10/26 13:25:12;;;;;;;4.82;2.80;;;;;;;;;;5014811;28;20053;-59
2023/10/26 13:28:06;;;;;;;4.65;3.03;;;;;;;;;;5013743;28;20050;-58
2023/10/26 13:30:53;;;;;;;6.53;3.17;;;;;;;;;;5014437;28;20120;-57
2023/10/26 13:33:47;;;;;;;5.00;3.17;;;;;;;;;;5007982;28;20648;-58
2023/10/26 13:36:41;;;;;;;7.53;3.20;;;;;;;;;;5015141;28;20050;-60
2023/10/26 13:39:28;;;;;;;7.25;3.35;;;;;;;;;;5012625;28;20061;-59
2023/10/26 13:42:22;;;;;;;5.85;3.15;;;;;;;;;;5013197;28;20141;-59
2023/10/26 13:45:10;;;;;;;12.60;3.70;;;;;;;;;;5013872;28;20061;-58
2023/10/26 13:48:07;;;;;;;5.65;3.38;;;;;;;;;;5012450;28;20093;-58
2023/10/26 13:50:54;;;;;;;6.60;3.50;;;;;;;;;;5014135;28;20057;-58
2023/10/26 13:53:49;;;;;;;7.13;3.17;;;;;;;;;;5013098;28;20057;-58
2023/10/26 13:56:35;;;;;;;7.25;2.78;;;;;;;;;;5012270;28;20508;-51
2023/10/26 13:59:29;;;;;;;6.38;3.38;;;;;;;;;;5011747;28;20454;-50
2023/10/26 14:02:03;;;;;;;7.72;3.40;;;;;;;;;;5010743;28;20061;-51
2023/10/26 14:04:37;;;;;;;5.82;3.47;;;;;;;;;;5012314;28;20045;-49
2023/10/26 14:07:24;;;;;;;13.07;4.60;;;;;;;;;;5012823;28;20049;-49
2023/10/26 14:10:19;;;;;;;10.93;3.70;;;;;;;;;;5006871;28;20081;-49
2023/10/26 14:13:13;;;;;;;7.95;4.03;;;;;;;;;;5014070;28;20061;-49
2023/10/26 14:15:59;;;;;;;6.95;3.40;;;;;;;;;;5010316;28;20045;-48
2023/10/26 14:19:12;;;;;;;8.25;3.88;;;;;;;;;;5012816;28;20052;-64
2023/10/26 14:22:06;;;;;;;9.80;3.45;;;;;;;;;;5013883;28;20056;-63
2023/10/26 14:24:59;;;;;;;9.88;3.53;;;;;;;;;;5008393;28;20064;-64
2023/10/26 14:27:47;;;;;;;5.63;3.55;;;;;;;;;;5009242;28;20536;-63
2023/10/26 14:30:40;;;;;;;7.82;3.28;;;;;;;;;;5003950;28;20585;-64
2023/10/26 14:33:07;;;;;;;6.90;3.65;;;;;;;;;;5014639;28;20049;-48
2023/10/26 14:36:01;;;;;;;9.48;4.00;;;;;;;;;;5009635;28;20918;-66
2023/10/26 14:38:51;;;;;;;7.43;4.32;;;;;;;;;;5008497;28;20057;-66
2023/10/26 14:41:25;;;;;;;7.55;4.05;;;;;;;;;;5010952;28;20081;-65
2023/10/26 14:44:13;;;;;;;9.63;3.92;;;;;;;;;;5008895;28;20088;-66
2023/10/26 14:47:06;;;;;;;8.32;4.20;;;;;;;;;;5012396;28;20080;-65
2023/10/26 14:49:53;;;;;;;7.88;4.28;;;;;;;;;;5011844;28;20144;-65
2023/10/26 14:52:47;;;;;;;8.43;4.13;;;;;;;;;;5009783;28;20169;-66
2023/10/26 14:55:34;;;;;;;12.23;4.50;;;;;;;;;;5010513;28;20060;-50
2023/10/26 14:58:28;;;;;;;10.88;4.10;;;;;;;;;;5012856;28;20053;-52
2023/10/26 15:01:22;;;;;;;9.00;4.22;;;;;;;;;;5015681;28;20096;-52
2023/10/26 15:04:16;;;;;;;6.07;3.78;;;;;;;;;;5007656;28;20052;-54
2023/10/26 15:07:04;;;;;;;8.40;3.70;;;;;;;;;;5010161;28;20172;-54
2023/10/26 15:09:38;;;;;;;7.25;4.25;;;;;;;;;;5013978;28;20045;-51
2023/10/26 15:12:25;;;;;;;9.27;4.18;;;;;;;;;;4999849;28;20057;-54
2023/10/26 15:15:19;;;;;;;6.72;4.40;;;;;;;;;;5007508;28;20053;-61
2023/10/26 15:17:51;;;;;;;7.65;4.30;;;;;;;;;;5009444;28;20049;-53
2023/10/26 15:20:45;;;;;;;8.13;4.55;;;;;;;;;;5005744;28;20143;-55
2023/10/26 15:23:32;;;;;;;6.43;3.85;;;;;;;;;;5007461;28;20112;-54
2023/10/26 15:26:29;;;;;;;5.57;3.08;;;;;;;;;;5006064;28;20054;-54
2023/10/26 15:29:17;;;;;;;9.63;4.43;;;;;;;;;;5006447;28;20604;-63
2023/10/26 15:32:10;;;;;;;8.95;4.45;;;;;;;;;;5007875;28;20104;-58
2023/10/26 15:34:57;;;;;;;10.35;4.05;;;;;;;;;;5008940;28;20058;-58
2023/10/26 15:37:51;;;;;;;8.90;4.43;;;;;;;;;;5009801;28;20061;-59
2023/10/26 15:40:59;;;;;;;10.77;4.32;;;;;;;;;;5010193;28;20292;-59
2023/10/26 15:43:46;;;;;;;11.32;5.18;;;;;;;;;;5012858;28;20143;-59
2023/10/26 15:46:19;;;;;;;9.68;4.43;;;;;;;;;;5014591;28;20210;-59
2023/10/26 15:49:07;;;;;;;14.48;5.13;;;;;;;;;;5009009;28;20053;-62
2023/10/26 15:52:03;;;;;;;8.38;4.22;;;;;;;;;;5012845;28;20083;-62
2023/10/26 15:54:50;;;;;;;8.30;4.65;;;;;;;;;;5007457;28;20065;-62
2023/10/26 15:57:46;;;;;;;9.63;5.25;;;;;;;;;;5001630;28;20050;-63
2023/10/26 16:00:40;;;;;;;13.13;4.93;;;;;;;;;;5004259;28;20058;-63
2023/10/26 16:03:40;;;;;;;10.70;4.50;;;;;;;;;;5001504;28;20062;-63
2023/10/26 16:06:27;;;;;;;13.30;5.15;;;;;;;;;;5010769;28;20080;-62
2023/10/26 16:09:21;;;;;;;9.40;4.88;;;;;;;;;;5014591;28;20053;-62
2023/10/26 16:12:09;;;;;;;16.88;5.07;;;;;;;;;;5008758;28;20045;-62
2023/10/26 16:15:02;;;;;;;10.85;5.40;;;;;;;;;;5015408;28;20048;-63
2023/10/26 16:17:50;;;;;;;10.80;5.13;;;;;;;;;;5016587;28;20057;-62
2023/10/26 16:20:45;;;;;;;9.75;5.22;;;;;;;;;;5000842;28;20135;-62
2023/10/26 16:23:32;;;;;;;10.70;5.00;;;;;;;;;;5012533;28;20061;-52
2023/10/26 16:26:25;;;;;;;13.13;4.70;;;;;;;;;;5006159;28;20135;-64
2023/10/26 16:29:13;;;;;;;13.68;5.22;;;;;;;;;;5012541;28;20108;-64
2023/10/26 16:32:06;;;;;;;10.50;4.88;;;;;;;;;;5013112;28;20084;-64
2023/10/26 16:34:55;;;;;;;9.30;5.40;;;;;;;;;;5013008;28;20049;-64
2023/10/26 16:37:47;;;;;;;12.20;5.00;;;;;;;;;;5012163;28;20345;-63
2023/10/26 16:40:35;;;;;;;13.23;5.47;;;;;;;;;;5011593;28;20108;-63
2023/10/26 16:43:28;;;;;;;10.05;5.10;;;;;;;;;;5015871;28;20104;-54
2023/10/26 16:46:15;;;;;;;13.07;6.07;;;;;;;;;;5021583;28;20106;-63
2023/10/26 16:49:09;;;;;;;12.98;4.97;;;;;;;;;;5007870;28;20057;-63
2023/10/26 16:52:03;;;;;;;12.38;5.50;;;;;;;;;;5011613;28;20140;-64
2023/10/26 16:54:57;;;;;;;12.23;5.32;;;;;;;;;;5017005;28;20111;-65
2023/10/26 16:57:47;;;;;;;8.43;5.13;;;;;;;;;;5015076;28;20052;-64
2023/10/26 17:00:45;;;;;;;12.10;6.20;;;;;;;;;;5011884;28;20053;-59